Time;durP1;ratioP1;P1;durP2;ratioP2;P2;SDS_P1;SDS_P2;PMS_P1;PMS_P2;Temp;Humidity;BMP_temperature;BMP_pressure;BME280_temperature;BME280_humidity;BME280_pressure;Samples;Min_cycle;Max_cycle;Signal;HPM_P1;HPM_P2
2021/11/28 00:00:07;;;;;;;103.23;51.03;;;6.20;99.90;;;;;;5007546;28;37697;-74
2021/11/28 00:02:34;;;;;;;81.23;45.60;;;6.20;99.90;;;;;;5019591;28;48709;-76
2021/11/28 00:05:02;;;;;;;78.57;46.47;;;6.20;99.90;;;;;;5020349;28;38196;-75
2021/11/28 00:10:14;;;;;;;92.93;49.53;;;6.20;99.90;;;;;;5018878;28;37850;-75
2021/11/28 00:15:26;;;;;;;95.23;51.57;;;6.20;99.90;;;;;;5018925;28;38990;-76
2021/11/28 00:17:52;;;;;;;108.83;54.20;;;6.20;99.90;;;;;;5018097;28;37704;-74
2021/11/28 00:20:18;;;;;;;91.43;50.43;;;6.10;99.90;;;;;;5012573;28;36259;-75
2021/11/28 00:22:44;;;;;;;99.83;51.23;;;6.20;99.90;;;;;;5012579;28;37956;-75
2021/11/28 00:25:13;;;;;;;88.77;48.77;;;6.10;99.90;;;;;;5020623;28;37671;-76
2021/11/28 00:27:41;;;;;;;83.23;46.03;;;6.10;99.90;;;;;;5017202;28;37738;-75
2021/11/28 00:30:10;;;;;;;103.33;51.90;;;6.10;99.90;;;;;;5016996;28;37562;-73
2021/11/28 00:32:37;;;;;;;86.87;48.47;;;6.10;99.90;;;;;;5015355;28;47435;-75
2021/11/28 00:35:04;;;;;;;94.37;51.17;;;6.10;99.90;;;;;;5011697;28;39069;-75
2021/11/28 00:37:30;;;;;;;88.67;46.73;;;6.10;99.90;;;;;;5023589;28;47343;-75
2021/11/28 00:39:57;;;;;;;83.43;46.63;;;6.10;99.90;;;;;;5017678;28;37071;-75
2021/11/28 00:42:23;;;;;;;89.53;47.33;;;6.00;99.90;;;;;;5030313;28;40008;-75
2021/11/28 00:44:49;;;;;;;114.13;53.67;;;6.00;99.90;;;;;;5017020;28;38441;-74
2021/11/28 00:47:15;;;;;;;95.57;47.30;;;6.10;99.90;;;;;;5032731;28;39138;-74
2021/11/28 00:49:51;;;;;;;108.80;51.97;;;6.10;99.90;;;;;;5027600;28;38124;-74
2021/11/28 00:52:17;;;;;;;104.73;51.23;;;6.00;99.90;;;;;;5014028;28;37781;-75
2021/11/28 00:54:44;;;;;;;107.20;52.13;;;6.00;99.90;;;;;;5037654;28;39524;-75
2021/11/28 00:57:10;;;;;;;96.03;49.50;;;6.10;99.90;;;;;;5012572;28;39578;-74
2021/11/28 00:59:36;;;;;;;84.73;47.30;;;6.10;99.90;;;;;;5040576;28;38423;-73
2021/11/28 01:02:02;;;;;;;89.23;46.77;;;6.00;99.90;;;;;;5016905;28;39320;-75
2021/11/28 01:04:28;;;;;;;80.37;44.43;;;6.00;99.90;;;;;;5011763;28;37263;-74
2021/11/28 01:06:54;;;;;;;84.43;44.03;;;6.00;99.90;;;;;;5021263;28;37831;-75
2021/11/28 01:09:22;;;;;;;83.00;42.90;;;6.00;99.90;;;;;;5018545;28;38026;-75
2021/11/28 01:11:48;;;;;;;91.33;44.50;;;6.00;99.90;;;;;;5022994;28;38420;-75
2021/11/28 01:14:14;;;;;;;87.70;43.33;;;6.00;99.90;;;;;;5015959;28;38994;-76
2021/11/28 01:16:44;;;;;;;77.80;42.17;;;6.00;99.90;;;;;;5016465;28;38614;-73
2021/11/28 01:19:10;;;;;;;93.57;45.83;;;6.00;99.90;;;;;;5009067;28;37774;-73
2021/11/28 01:21:37;;;;;;;73.53;40.93;;;6.00;99.90;;;;;;5020358;28;38725;-73
2021/11/28 01:24:04;;;;;;;84.60;42.97;;;6.00;99.90;;;;;;5014625;28;39311;-72
2021/11/28 01:26:31;;;;;;;69.30;39.97;;;6.00;99.90;;;;;;5026884;28;38721;-75
2021/11/28 01:28:58;;;;;;;68.50;38.80;;;6.00;99.90;;;;;;5015859;28;38124;-76
2021/11/28 01:31:24;;;;;;;80.10;41.00;;;6.00;99.90;;;;;;5021784;28;38300;-75
2021/11/28 01:33:51;;;;;;;75.27;41.13;;;6.00;99.90;;;;;;5017464;28;38215;-75
2021/11/28 01:36:18;;;;;;;93.37;42.77;;;5.90;99.90;;;;;;5020524;28;38780;-76
2021/11/28 01:38:44;;;;;;;79.50;40.47;;;6.00;99.90;;;;;;5018570;28;38235;-75
2021/11/28 01:41:10;;;;;;;76.73;40.37;;;6.00;99.90;;;;;;5023937;28;40559;-75
2021/11/28 01:43:36;;;;;;;73.33;38.30;;;6.00;99.90;;;;;;5017591;28;38396;-75
2021/11/28 01:46:02;;;;;;;70.87;39.80;;;6.00;99.90;;;;;;5019962;28;37958;-75
2021/11/28 01:48:28;;;;;;;76.93;40.93;;;6.00;99.90;;;;;;5048715;28;39005;-75
2021/11/28 01:50:54;;;;;;;75.03;39.83;;;6.00;99.90;;;;;;5035367;28;39477;-75
2021/11/28 01:53:25;;;;;;;65.40;38.03;;;6.00;99.90;;;;;;5021344;28;38430;-75
2021/11/28 01:55:52;;;;;;;62.07;36.87;;;6.00;99.90;;;;;;5016213;28;38823;-75
2021/11/28 01:58:19;;;;;;;67.27;38.10;;;6.00;99.90;;;;;;5016002;28;38986;-75
2021/11/28 02:00:49;;;;;;;71.43;39.63;;;6.00;99.90;;;;;;5015256;28;38756;-74
2021/11/28 02:03:17;;;;;;;73.77;40.43;;;6.10;99.90;;;;;;5013764;28;39375;-74
2021/11/28 02:05:48;;;;;;;73.07;40.80;;;6.10;99.90;;;;;;5011802;28;37490;-74
2021/11/28 02:08:14;;;;;;;74.70;40.93;;;6.10;99.90;;;;;;5019186;28;37017;-74
2021/11/28 02:10:42;;;;;;;80.40;41.93;;;6.10;99.90;;;;;;5016126;28;38752;-75
2021/11/28 02:13:08;;;;;;;71.37;41.87;;;6.10;99.90;;;;;;5014128;28;39883;-75
2021/11/28 02:15:35;;;;;;;60.40;38.70;;;6.10;99.90;;;;;;5021044;28;37611;-75
2021/11/28 02:18:02;;;;;;;72.67;42.47;;;6.10;99.90;;;;;;5018612;28;38303;-74
2021/11/28 02:20:30;;;;;;;61.73;38.47;;;6.00;99.90;;;;;;5012895;28;39368;-74
2021/11/28 02:22:57;;;;;;;62.83;36.50;;;6.00;99.90;;;;;;5017943;28;38350;-75
2021/11/28 02:25:25;;;;;;;68.50;38.70;;;5.90;99.90;;;;;;5021681;28;37969;-74
2021/11/28 02:27:55;;;;;;;66.17;37.13;;;6.00;99.90;;;;;;5013577;28;39067;-75
2021/11/28 02:30:22;;;;;;;59.43;35.00;;;5.90;99.90;;;;;;5011334;28;39031;-75
2021/11/28 02:32:49;;;;;;;58.60;36.03;;;5.90;99.90;;;;;;5013257;28;36607;-74
2021/11/28 02:35:16;;;;;;;63.03;37.57;;;6.00;99.90;;;;;;5018862;28;41096;-74
2021/11/28 02:37:43;;;;;;;60.50;34.73;;;6.00;99.90;;;;;;5024027;28;39515;-75
2021/11/28 02:40:18;;;;;;;55.60;33.63;;;6.00;99.90;;;;;;5010425;28;38985;-75
2021/11/28 02:42:45;;;;;;;54.90;34.63;;;6.00;99.90;;;;;;5030046;28;39956;-74
2021/11/28 02:45:12;;;;;;;56.47;34.97;;;6.00;99.90;;;;;;5017166;28;39454;-75
2021/11/28 02:47:39;;;;;;;61.10;38.20;;;6.00;99.90;;;;;;5018200;28;38188;-75
2021/11/28 02:50:06;;;;;;;71.60;39.83;;;6.00;99.90;;;;;;5017716;28;38488;-74
2021/11/28 02:52:33;;;;;;;56.17;36.87;;;6.00;99.90;;;;;;5020191;28;37568;-74
2021/11/28 02:55:00;;;;;;;64.17;38.00;;;6.00;99.90;;;;;;5017276;28;37432;-75
2021/11/28 02:57:26;;;;;;;66.70;39.43;;;6.00;99.90;;;;;;5013061;28;36800;-75
2021/11/28 02:59:52;;;;;;;55.00;35.10;;;6.00;99.90;;;;;;5021720;28;39978;-75
2021/11/28 03:02:18;;;;;;;67.47;39.07;;;6.00;99.90;;;;;;5016342;28;38060;-74
2021/11/28 03:04:44;;;;;;;67.87;40.50;;;6.00;99.90;;;;;;5019772;28;38233;-74
2021/11/28 03:07:18;;;;;;;60.50;37.20;;;6.00;99.90;;;;;;5016178;28;39519;-74
2021/11/28 03:09:44;;;;;;;56.43;36.07;;;6.00;99.90;;;;;;5029186;28;39776;-75
2021/11/28 03:12:11;;;;;;;55.53;35.53;;;6.00;99.90;;;;;;5021853;28;39361;-75
2021/11/28 03:14:38;;;;;;;62.30;37.53;;;6.00;99.90;;;;;;5016488;28;38788;-75
2021/11/28 03:17:05;;;;;;;61.43;37.07;;;6.10;99.90;;;;;;5020115;28;38170;-75
2021/11/28 03:19:31;;;;;;;52.43;33.00;;;6.00;99.90;;;;;;5018579;28;38465;-75
2021/11/28 03:21:57;;;;;;;54.13;33.87;;;6.00;99.90;;;;;;5020940;28;37024;-75
2021/11/28 03:24:23;;;;;;;55.63;33.77;;;5.90;99.90;;;;;;5028855;28;38676;-75
2021/11/28 03:26:52;;;;;;;48.57;31.97;;;5.90;99.90;;;;;;5026128;28;37662;-75
2021/11/28 03:29:21;;;;;;;48.37;30.63;;;5.80;99.90;;;;;;5019798;28;38615;-75
2021/11/28 03:31:51;;;;;;;42.43;28.17;;;5.70;99.90;;;;;;5017563;28;38076;-74
2021/11/28 03:34:18;;;;;;;46.43;28.87;;;5.60;99.90;;;;;;5017879;28;37116;-74
2021/11/28 03:36:51;;;;;;;48.83;30.50;;;5.50;99.90;;;;;;5011451;28;37690;-74
2021/11/28 03:39:21;;;;;;;46.83;29.47;;;5.40;99.90;;;;;;5033908;28;39243;-74
2021/11/28 03:41:51;;;;;;;52.93;31.77;;;5.30;99.90;;;;;;5021150;28;38955;-74
2021/11/28 03:44:18;;;;;;;50.13;31.83;;;5.20;99.90;;;;;;5016649;28;37585;-74
2021/11/28 03:46:44;;;;;;;44.00;28.03;;;5.20;99.90;;;;;;5025748;28;37327;-74
2021/11/28 03:49:10;;;;;;;48.07;29.70;;;5.10;99.90;;;;;;5014193;28;39426;-75
2021/11/28 03:51:37;;;;;;;48.20;30.17;;;5.10;99.90;;;;;;5016804;28;39092;-74
2021/11/28 03:54:03;;;;;;;47.27;29.93;;;5.00;99.90;;;;;;5025818;28;38550;-75
2021/11/28 03:56:30;;;;;;;46.60;28.23;;;5.00;99.90;;;;;;5025375;28;38085;-73
2021/11/28 03:58:57;;;;;;;56.93;32.50;;;5.00;99.90;;;;;;5017637;28;38911;-75
2021/11/28 04:01:25;;;;;;;45.17;28.13;;;5.00;99.90;;;;;;5015225;28;39702;-75
2021/11/28 04:03:51;;;;;;;46.10;28.87;;;4.90;99.90;;;;;;5026288;28;38382;-74
2021/11/28 04:06:19;;;;;;;47.87;29.40;;;4.90;99.90;;;;;;5041949;28;39139;-75
2021/11/28 04:08:45;;;;;;;44.63;27.87;;;4.80;99.90;;;;;;5027801;28;39502;-74
2021/11/28 04:11:11;;;;;;;49.37;29.47;;;4.80;99.90;;;;;;5029284;28;38326;-75
2021/11/28 04:13:38;;;;;;;47.90;28.33;;;4.80;99.90;;;;;;5018989;28;38427;-75
2021/11/28 04:16:04;;;;;;;44.23;27.90;;;4.70;99.90;;;;;;5013577;28;38884;-75
2021/11/28 04:18:30;;;;;;;43.83;27.40;;;4.70;99.90;;;;;;5034081;28;39620;-74
2021/11/28 04:20:57;;;;;;;49.97;29.17;;;4.70;99.90;;;;;;5047737;28;40117;-75
2021/11/28 04:23:23;;;;;;;43.57;27.13;;;4.60;99.90;;;;;;5014659;28;36732;-74
2021/11/28 04:25:50;;;;;;;40.80;25.87;;;4.60;99.90;;;;;;5013645;28;38025;-75
2021/11/28 04:28:16;;;;;;;50.07;29.13;;;4.50;99.90;;;;;;5009904;28;39771;-74
2021/11/28 04:30:43;;;;;;;43.10;26.37;;;4.50;99.90;;;;;;5010768;28;38676;-74
2021/11/28 04:33:10;;;;;;;52.03;27.53;;;4.50;99.90;;;;;;5012179;28;38486;-74
2021/11/28 04:35:36;;;;;;;51.57;26.83;;;4.50;99.90;;;;;;5013139;28;38207;-74
2021/11/28 04:38:03;;;;;;;44.17;26.60;;;4.50;99.90;;;;;;5019451;28;38690;-75
2021/11/28 04:40:29;;;;;;;56.90;28.90;;;4.50;99.90;;;;;;5011475;28;38901;-74
2021/11/28 04:42:55;;;;;;;44.13;26.93;;;4.50;99.90;;;;;;5015822;28;39479;-74
2021/11/28 04:45:21;;;;;;;52.67;28.53;;;4.50;99.90;;;;;;5018924;28;37135;-74
2021/11/28 04:47:47;;;;;;;52.50;29.30;;;4.40;99.90;;;;;;5014189;28;39352;-74
2021/11/28 04:50:14;;;;;;;51.90;28.30;;;4.30;99.90;;;;;;5014622;28;38336;-74
2021/11/28 04:52:41;;;;;;;47.13;27.07;;;4.30;99.90;;;;;;5027430;28;38704;-74
2021/11/28 04:55:09;;;;;;;44.03;26.30;;;4.20;99.90;;;;;;5026527;28;37278;-74
2021/11/28 04:57:35;;;;;;;57.87;28.67;;;4.10;99.90;;;;;;5011341;28;39919;-75
2021/11/28 05:00:04;;;;;;;47.90;27.00;;;4.10;99.90;;;;;;5023915;28;39411;-74
2021/11/28 05:02:30;;;;;;;56.83;29.70;;;4.00;99.90;;;;;;5026680;28;38556;-74
2021/11/28 05:04:56;;;;;;;45.90;26.37;;;4.00;99.90;;;;;;5014996;28;40062;-74
2021/11/28 05:07:22;;;;;;;48.00;27.40;;;4.00;99.90;;;;;;5020703;28;40395;-74
2021/11/28 05:09:48;;;;;;;53.60;28.03;;;4.00;99.90;;;;;;5026237;28;38082;-75
2021/11/28 05:12:14;;;;;;;50.67;28.03;;;4.10;99.90;;;;;;5009097;28;39383;-74
2021/11/28 05:14:41;;;;;;;55.07;28.50;;;4.00;99.90;;;;;;5013943;28;37196;-75
2021/11/28 05:17:07;;;;;;;42.50;25.67;;;4.00;99.90;;;;;;5014260;28;37794;-75
2021/11/28 05:19:33;;;;;;;53.83;26.80;;;3.90;99.90;;;;;;5011698;28;38341;-74
2021/11/28 05:22:01;;;;;;;55.30;28.80;;;3.80;99.90;;;;;;5046847;28;39783;-74
2021/11/28 05:24:27;;;;;;;69.23;31.73;;;3.80;99.90;;;;;;5037274;28;47244;-74
2021/11/28 05:26:53;;;;;;;62.00;29.27;;;3.80;99.90;;;;;;5030530;28;38806;-74
2021/11/28 05:29:19;;;;;;;56.50;29.53;;;3.70;99.90;;;;;;5020093;28;36489;-74
2021/11/28 05:31:46;;;;;;;58.33;29.10;;;3.80;99.90;;;;;;5012187;28;38831;-74
2021/11/28 05:34:12;;;;;;;62.60;30.43;;;3.80;99.90;;;;;;5019968;28;38177;-74
2021/11/28 05:36:38;;;;;;;57.23;29.53;;;3.80;99.90;;;;;;5015199;28;38043;-74
2021/11/28 05:39:04;;;;;;;64.47;29.57;;;3.80;99.90;;;;;;5012145;28;38604;-74
2021/11/28 05:41:31;;;;;;;48.87;27.80;;;3.80;99.90;;;;;;5018985;28;38975;-74
2021/11/28 05:43:57;;;;;;;63.93;34.50;;;3.90;99.90;;;;;;5019487;28;37482;-74
2021/11/28 05:46:23;;;;;;;61.23;32.00;;;4.00;99.90;;;;;;5018857;28;39764;-75
2021/11/28 05:48:49;;;;;;;71.57;34.03;;;4.10;99.90;;;;;;5019425;28;38926;-75
2021/11/28 05:51:15;;;;;;;55.63;29.77;;;4.10;99.90;;;;;;5016006;28;38864;-74
2021/11/28 05:53:41;;;;;;;60.87;30.50;;;4.10;99.90;;;;;;5023091;28;38580;-74
2021/11/28 05:56:08;;;;;;;49.30;28.47;;;4.10;99.90;;;;;;5022511;28;40261;-75
2021/11/28 05:58:34;;;;;;;47.77;25.87;;;4.10;99.90;;;;;;5032355;28;39815;-74
2021/11/28 06:01:00;;;;;;;52.93;29.97;;;4.00;99.90;;;;;;5037123;28;38453;-74
2021/11/28 06:03:26;;;;;;;53.37;28.10;;;3.90;99.90;;;;;;5040824;28;39630;-75
2021/11/28 06:05:53;;;;;;;42.53;24.80;;;3.90;99.90;;;;;;5037620;28;38677;-74
2021/11/28 06:08:20;;;;;;;53.10;27.73;;;3.80;99.90;;;;;;5040409;28;38570;-74
2021/11/28 06:10:46;;;;;;;69.50;31.13;;;3.80;99.90;;;;;;5037464;28;38237;-74
2021/11/28 06:13:12;;;;;;;62.90;30.87;;;3.80;99.90;;;;;;5035865;28;37252;-75
2021/11/28 06:15:38;;;;;;;63.43;30.80;;;3.80;99.90;;;;;;5038166;28;39794;-74
2021/11/28 06:18:04;;;;;;;62.77;29.17;;;3.80;99.90;;;;;;5029597;28;38145;-74
2021/11/28 06:20:30;;;;;;;56.93;29.33;;;3.80;99.90;;;;;;5018149;28;39864;-74
2021/11/28 06:22:57;;;;;;;85.37;34.87;;;3.80;99.90;;;;;;5027238;28;38198;-74
2021/11/28 06:25:23;;;;;;;62.43;31.47;;;3.80;99.90;;;;;;5020187;28;39135;-75
2021/11/28 06:27:49;;;;;;;70.23;33.23;;;3.80;99.90;;;;;;5018415;28;40256;-75
2021/11/28 06:30:15;;;;;;;87.00;37.77;;;3.80;99.90;;;;;;5016420;28;38898;-74
2021/11/28 06:32:41;;;;;;;80.27;34.40;;;3.90;99.90;;;;;;5022059;28;37702;-74
2021/11/28 06:35:08;;;;;;;58.63;30.77;;;3.90;99.90;;;;;;5014716;28;39830;-74
2021/11/28 06:37:34;;;;;;;76.37;32.50;;;3.90;99.90;;;;;;5017865;28;38270;-74
2021/11/28 06:40:00;;;;;;;65.30;30.67;;;3.90;99.90;;;;;;5019843;28;37538;-74
2021/11/28 06:42:26;;;;;;;65.53;30.87;;;3.90;99.90;;;;;;5025201;28;39510;-74
2021/11/28 06:44:52;;;;;;;67.27;31.83;;;3.90;99.90;;;;;;5044572;28;38646;-74
2021/11/28 06:47:18;;;;;;;69.13;30.87;;;3.90;99.90;;;;;;5037055;28;38524;-74
2021/11/28 06:49:44;;;;;;;79.00;31.90;;;3.80;99.90;;;;;;5010375;28;37862;-73
2021/11/28 06:52:10;;;;;;;91.90;35.27;;;3.90;99.90;;;;;;5013483;28;37355;-75
2021/11/28 06:54:36;;;;;;;75.03;32.70;;;3.90;99.90;;;;;;5011825;28;40290;-74
2021/11/28 06:57:03;;;;;;;76.33;32.93;;;3.90;99.90;;;;;;5007283;28;38815;-75
2021/11/28 06:59:31;;;;;;;73.07;31.30;;;4.00;99.90;;;;;;5009835;28;37963;-74
2021/11/28 07:01:57;;;;;;;83.97;35.00;;;4.00;99.90;;;;;;5033196;28;38361;-74
2021/11/28 07:04:23;;;;;;;63.70;31.97;;;4.10;99.90;;;;;;5036724;28;37193;-74
2021/11/28 07:06:49;;;;;;;62.20;30.90;;;4.10;99.90;;;;;;5029212;28;38438;-74
2021/11/28 07:09:15;;;;;;;69.30;30.57;;;4.10;99.90;;;;;;5030193;28;37608;-73
2021/11/28 07:11:42;;;;;;;74.07;31.10;;;4.10;99.90;;;;;;5037344;28;37873;-74
2021/11/28 07:14:08;;;;;;;51.30;28.10;;;4.10;99.90;;;;;;5037806;28;41112;-74
2021/11/28 07:16:34;;;;;;;51.73;27.40;;;4.00;99.90;;;;;;5034784;28;39130;-73
2021/11/28 07:19:00;;;;;;;44.70;24.93;;;4.10;99.90;;;;;;5039779;28;38140;-73
2021/11/28 07:21:26;;;;;;;43.17;24.97;;;4.10;99.90;;;;;;5014965;28;38717;-74
2021/11/28 07:23:52;;;;;;;69.97;30.77;;;4.10;99.90;;;;;;5013920;28;39418;-74
2021/11/28 07:26:19;;;;;;;58.03;28.40;;;4.20;99.90;;;;;;5018761;28;38091;-74
2021/11/28 07:28:46;;;;;;;82.53;32.93;;;4.20;99.90;;;;;;5024211;28;38782;-74
2021/11/28 07:31:12;;;;;;;74.03;33.57;;;4.40;99.90;;;;;;5027562;28;36392;-74
2021/11/28 07:33:38;;;;;;;90.77;33.30;;;4.50;99.90;;;;;;5018223;28;39798;-75
2021/11/28 07:36:06;;;;;;;62.10;31.13;;;4.60;99.90;;;;;;5042146;28;37519;-75
2021/11/28 07:38:33;;;;;;;91.80;34.63;;;4.80;99.90;;;;;;5011379;28;38663;-73
2021/11/28 07:41:00;;;;;;;105.63;37.40;;;5.00;99.90;;;;;;5013676;28;38249;-75
2021/11/28 07:43:26;;;;;;;102.77;37.60;;;5.20;99.90;;;;;;5035775;28;41372;-75
2021/11/28 07:45:53;;;;;;;89.73;36.47;;;5.20;99.90;;;;;;5031908;28;38588;-74
2021/11/28 07:48:20;;;;;;;110.97;39.37;;;5.40;99.90;;;;;;5039758;28;37489;-75
2021/11/28 07:50:47;;;;;;;107.53;39.03;;;5.40;99.90;;;;;;5042405;28;38930;-75
2021/11/28 07:53:14;;;;;;;92.13;37.13;;;5.50;99.90;;;;;;5036864;28;39683;-75
2021/11/28 07:55:41;;;;;;;78.37;34.63;;;5.50;99.90;;;;;;5035415;28;37458;-75
2021/11/28 07:58:07;;;;;;;82.43;36.53;;;5.50;99.90;;;;;;5033812;28;37723;-75
2021/11/28 08:00:34;;;;;;;104.50;39.53;;;5.50;99.90;;;;;;5034576;28;38862;-73
2021/11/28 08:03:01;;;;;;;111.03;40.10;;;5.50;99.90;;;;;;5029072;28;39326;-73
2021/11/28 08:05:28;;;;;;;55.17;30.67;;;5.50;99.90;;;;;;5033303;28;48634;-74
2021/11/28 08:07:54;;;;;;;82.03;35.90;;;5.50;99.90;;;;;;5038432;28;39750;-75
2021/11/28 08:10:21;;;;;;;79.37;36.63;;;5.50;99.90;;;;;;5039673;28;37314;-75
2021/11/28 08:12:47;;;;;;;117.47;39.70;;;5.50;99.90;;;;;;5046210;28;39354;-76
2021/11/28 08:15:18;;;;;;;70.23;33.37;;;5.50;99.90;;;;;;5038476;28;38326;-76
2021/11/28 08:17:48;;;;;;;74.20;33.30;;;5.50;99.90;;;;;;5037491;28;37588;-75
2021/11/28 08:20:16;;;;;;;55.00;28.13;;;5.50;99.90;;;;;;5038458;28;38597;-75
2021/11/28 08:22:44;;;;;;;52.63;25.00;;;5.60;99.90;;;;;;5043492;28;40104;-76
2021/11/28 08:25:13;;;;;;;42.10;21.37;;;5.70;99.90;;;;;;5046683;28;39395;-76
2021/11/28 08:27:40;;;;;;;50.17;23.47;;;5.80;99.90;;;;;;5040904;28;38676;-75
2021/11/28 08:30:13;;;;;;;37.50;19.17;;;5.80;99.90;;;;;;5038335;28;39517;-75
2021/11/28 08:32:41;;;;;;;32.58;16.38;;;5.80;99.90;;;;;;5032475;28;47158;-75
2021/11/28 08:35:09;;;;;;;31.20;16.03;;;5.80;99.90;;;;;;5045393;28;37957;-76
2021/11/28 08:37:36;;;;;;;27.80;14.67;;;5.90;99.90;;;;;;5039602;28;38035;-76
2021/11/28 08:40:04;;;;;;;23.23;12.60;;;5.90;99.90;;;;;;5035979;28;38191;-75
2021/11/28 08:42:32;;;;;;;25.47;13.47;;;5.90;99.90;;;;;;5015977;28;47265;-75
2021/11/28 08:45:00;;;;;;;23.50;12.23;;;6.00;99.90;;;;;;5016473;28;38180;-75
2021/11/28 08:47:27;;;;;;;26.33;11.33;;;5.90;99.90;;;;;;5011289;28;37785;-75
2021/11/28 08:49:53;;;;;;;21.43;11.30;;;6.00;99.90;;;;;;5008037;28;37271;-75
2021/11/28 08:52:19;;;;;;;21.23;11.40;;;6.00;99.90;;;;;;5020169;28;39378;-75
2021/11/28 08:54:45;;;;;;;15.17;9.43;;;5.90;99.90;;;;;;5020454;28;38766;-76
2021/11/28 08:57:11;;;;;;;21.73;10.80;;;5.90;99.90;;;;;;5009850;28;39066;-75
2021/11/28 08:59:40;;;;;;;18.20;8.87;;;5.90;99.90;;;;;;5011317;28;20566;-75
2021/11/28 09:02:06;;;;;;;17.20;8.27;;;5.90;99.90;;;;;;5008963;28;39760;-75
2021/11/28 09:04:32;;;;;;;15.57;7.60;;;5.90;99.90;;;;;;5018466;28;39547;-76
2021/11/28 09:06:58;;;;;;;9.77;5.53;;;5.90;99.90;;;;;;5007107;28;38636;-74
2021/11/28 09:09:25;;;;;;;7.37;4.10;;;5.80;99.90;;;;;;5014499;28;37127;-75
2021/11/28 09:11:51;;;;;;;9.00;4.07;;;5.70;99.90;;;;;;5012838;28;38919;-75
2021/11/28 09:14:17;;;;;;;8.13;3.17;;;5.70;99.90;;;;;;5013011;28;38237;-75
2021/11/28 09:16:43;;;;;;;4.10;2.20;;;5.70;99.90;;;;;;5011032;28;37932;-75
2021/11/28 09:19:53;;;;;;;5.73;2.07;;;5.70;99.90;;;;;;5012819;28;38014;-75
2021/11/28 09:22:00;;;;;;;4.27;1.57;;;5.70;99.90;;;;;;5004216;28;39940;-76
2021/11/28 09:24:40;;;;;;;2.40;1.47;;;5.70;99.90;;;;;;5016760;28;37911;-74
2021/11/28 09:27:13;;;;;;;2.53;1.30;;;5.70;99.90;;;;;;5037364;28;38139;-75
2021/11/28 09:29:43;;;;;;;4.40;1.27;;;5.60;99.90;;;;;;5012066;28;37644;-75
2021/11/28 09:32:10;;;;;;;4.13;1.37;;;5.60;99.90;;;;;;5007759;28;38829;-75
2021/11/28 09:34:38;;;;;;;2.63;1.33;;;5.70;99.90;;;;;;5010990;28;39783;-75
2021/11/28 09:37:08;;;;;;;3.30;1.30;;;5.60;99.90;;;;;;5006821;28;37673;-75
2021/11/28 09:39:35;;;;;;;2.73;1.50;;;5.70;99.90;;;;;;5005382;28;37711;-75
2021/11/28 09:42:05;;;;;;;5.40;1.20;;;5.70;99.90;;;;;;5005768;28;39706;-75
2021/11/28 09:44:34;;;;;;;3.73;1.40;;;5.70;99.90;;;;;;5035424;28;47432;-75
2021/11/28 09:47:01;;;;;;;3.27;0.90;;;5.70;99.90;;;;;;5022085;28;37354;-75
2021/11/28 09:49:29;;;;;;;4.40;1.20;;;5.70;99.90;;;;;;5007760;28;38127;-75
2021/11/28 09:52:00;;;;;;;5.27;1.17;;;5.70;99.90;;;;;;5012021;28;39373;-75
2021/11/28 09:54:28;;;;;;;2.20;0.90;;;5.70;99.90;;;;;;5011310;28;40026;-73
2021/11/28 09:56:54;;;;;;;3.70;1.00;;;5.70;99.90;;;;;;5009060;28;36603;-75
2021/11/28 09:59:21;;;;;;;1.83;1.00;;;5.70;99.90;;;;;;5013850;28;37523;-75
2021/11/28 10:01:49;;;;;;;3.30;0.50;;;5.70;99.90;;;;;;5016411;28;39816;-75
2021/11/28 10:04:16;;;;;;;0.93;0.47;;;5.60;99.90;;;;;;5024975;28;38367;-75
2021/11/28 10:06:42;;;;;;;2.63;0.60;;;5.50;99.90;;;;;;5015365;28;38644;-75
2021/11/28 10:09:08;;;;;;;4.27;0.60;;;5.50;99.90;;;;;;5013679;28;37045;-75
2021/11/28 10:11:40;;;;;;;2.93;0.50;;;5.50;99.90;;;;;;5028135;28;39639;-75
2021/11/28 10:14:14;;;;;;;1.42;0.40;;;5.50;99.90;;;;;;5024848;28;40000;-74
2021/11/28 10:16:40;;;;;;;1.90;0.57;;;5.60;99.90;;;;;;5020410;28;38588;-75
2021/11/28 10:19:09;;;;;;;2.13;1.03;;;5.60;99.90;;;;;;5019462;28;36687;-75
2021/11/28 10:21:36;;;;;;;1.40;0.60;;;5.60;99.90;;;;;;5021623;28;39551;-75
2021/11/28 10:24:14;;;;;;;3.23;0.50;;;5.70;99.90;;;;;;5017308;28;38781;-76
2021/11/28 10:26:52;;;;;;;1.50;0.50;;;5.70;99.90;;;;;;5045423;28;39409;-76
2021/11/28 10:29:19;;;;;;;2.20;0.53;;;5.80;99.90;;;;;;5026110;28;38162;-76
2021/11/28 10:31:46;;;;;;;2.27;0.40;;;5.90;99.90;;;;;;5016896;28;39392;-76
2021/11/28 10:34:17;;;;;;;1.37;0.60;;;5.90;99.90;;;;;;5020847;28;39707;-76
2021/11/28 10:36:43;;;;;;;1.40;0.30;;;6.00;99.90;;;;;;5023762;28;37230;-76
2021/11/28 10:39:21;;;;;;;0.83;0.20;;;6.00;99.90;;;;;;5018904;28;37445;-75
2021/11/28 10:41:56;;;;;;;1.93;0.40;;;6.10;99.90;;;;;;5040572;28;39495;-76
2021/11/28 10:44:25;;;;;;;1.40;0.20;;;6.10;99.90;;;;;;5023383;28;40004;-76
2021/11/28 10:46:57;;;;;;;1.07;0.30;;;6.10;99.90;;;;;;5043768;28;37606;-76
2021/11/28 10:49:24;;;;;;;1.85;0.20;;;6.20;99.90;;;;;;5048704;28;37277;-75
2021/11/28 10:51:54;;;;;;;0.50;0.20;;;6.30;99.90;;;;;;5021709;28;41263;-74
2021/11/28 10:54:20;;;;;;;2.63;0.30;;;6.40;99.90;;;;;;5019927;28;37668;-75
2021/11/28 10:56:48;;;;;;;1.83;0.10;;;6.50;99.90;;;;;;5017185;28;38704;-75
2021/11/28 10:59:19;;;;;;;1.60;0.17;;;6.60;99.90;;;;;;5019162;28;37574;-75
2021/11/28 11:01:46;;;;;;;1.17;0.20;;;6.60;99.90;;;;;;5008429;28;38595;-75
2021/11/28 11:04:21;;;;;;;0.53;0.30;;;6.60;99.90;;;;;;5034782;28;39464;-75
2021/11/28 11:07:17;;;;;;;1.70;0.50;;;6.70;99.90;;;;;;5018188;28;37654;-73
2021/11/28 11:09:47;;;;;;;0.20;0.20;;;6.60;99.90;;;;;;5016154;28;48804;-74
2021/11/28 11:12:33;;;;;;;0.43;0.23;;;6.50;99.90;;;;;;5023857;28;38515;-73
2021/11/28 11:15:00;;;;;;;0.63;0.30;;;6.40;99.90;;;;;;5018463;28;39261;-76
2021/11/28 11:17:31;;;;;;;1.73;0.27;;;6.40;99.90;;;;;;5017101;28;35330;-76
2021/11/28 11:19:59;;;;;;;1.00;0.33;;;6.40;99.90;;;;;;5048928;28;37832;-75
2021/11/28 11:22:29;;;;;;;2.43;0.33;;;6.30;99.90;;;;;;5015532;28;39004;-75
2021/11/28 11:24:58;;;;;;;0.83;0.50;;;6.30;99.90;;;;;;5013815;28;39302;-75
2021/11/28 11:27:36;;;;;;;1.63;0.50;;;6.30;99.90;;;;;;5016612;28;38922;-75
2021/11/28 11:30:15;;;;;;;2.40;0.70;;;6.30;99.90;;;;;;5016203;28;36908;-75
2021/11/28 11:32:48;;;;;;;0.37;0.37;;;6.30;99.90;;;;;;5021080;28;47508;-76
2021/11/28 11:35:30;;;;;;;0.30;0.30;;;6.30;99.90;;;;;;5018975;28;40126;-76
2021/11/28 11:38:03;;;;;;;2.10;0.37;;;6.30;99.90;;;;;;5018697;28;38506;-75
2021/11/28 11:40:29;;;;;;;;;;;6.30;99.90;;;;;;5016490;28;47412;-75
2021/11/28 11:42:55;;;;;;;1.37;0.40;;;6.40;99.90;;;;;;5019138;28;39561;-76
2021/11/28 11:45:25;;;;;;;1.97;0.70;;;6.50;99.90;;;;;;5014701;28;37417;-73
2021/11/28 11:47:52;;;;;;;2.30;0.43;;;6.60;99.90;;;;;;5020964;28;38340;-75
2021/11/28 11:50:21;;;;;;;0.70;0.40;;;6.60;99.90;;;;;;5013376;28;37008;-73
2021/11/28 11:52:50;;;;;;;1.10;0.37;;;6.60;99.90;;;;;;5018820;28;38771;-74
2021/11/28 11:55:26;;;;;;;1.60;0.43;;;6.60;99.90;;;;;;5009796;28;38330;-73
2021/11/28 11:58:23;;;;;;;0.97;0.40;;;6.60;99.90;;;;;;5022674;28;37501;-73
2021/11/28 12:01:03;;;;;;;2.23;0.60;;;6.70;99.90;;;;;;5027995;28;47548;-74
2021/11/28 12:03:48;;;;;;;1.73;0.60;;;6.60;99.90;;;;;;5019855;28;47090;-73
2021/11/28 12:06:14;;;;;;;1.50;0.30;;;6.70;99.90;;;;;;5012905;28;39340;-74
2021/11/28 12:08:51;;;;;;;0.83;0.30;;;6.60;99.90;;;;;;5034748;28;38661;-74
2021/11/28 12:11:22;;;;;;;1.60;0.63;;;6.60;99.90;;;;;;5018557;28;37507;-74
2021/11/28 12:13:52;;;;;;;2.50;0.60;;;6.60;99.90;;;;;;5019277;28;38970;-74
2021/11/28 12:16:20;;;;;;;1.33;0.33;;;6.50;99.90;;;;;;5023580;28;39922;-74
2021/11/28 12:18:49;;;;;;;2.90;0.77;;;6.50;99.90;;;;;;5012843;28;38317;-74
2021/11/28 12:21:16;;;;;;;1.40;0.53;;;6.50;99.90;;;;;;5015442;28;38948;-75
2021/11/28 12:24:00;;;;;;;2.57;0.60;;;6.50;99.90;;;;;;5016719;28;39611;-74
2021/11/28 12:26:36;;;;;;;4.27;0.87;;;6.40;99.90;;;;;;5016055;28;39940;-73
2021/11/28 12:29:14;;;;;;;3.20;0.80;;;6.40;99.90;;;;;;5030676;28;37077;-75
2021/11/28 12:31:49;;;;;;;5.80;0.80;;;6.40;99.90;;;;;;5015853;28;37877;-74
2021/11/28 12:34:17;;;;;;;2.77;0.90;;;6.50;99.90;;;;;;5014512;28;39060;-74
2021/11/28 12:36:48;;;;;;;3.53;0.70;;;6.50;99.90;;;;;;5053029;28;37333;-74
2021/11/28 12:39:21;;;;;;;3.90;0.70;;;6.50;99.90;;;;;;5016353;28;38398;-73
2021/11/28 12:41:55;;;;;;;;;;;6.50;99.90;;;;;;5039101;28;36925;-73
2021/11/28 12:44:22;;;;;;;3.43;0.90;;;6.50;99.90;;;;;;5020134;28;39798;-74
2021/11/28 12:47:11;;;;;;;4.40;1.10;;;6.50;99.90;;;;;;5012078;28;38123;-74
2021/11/28 12:49:51;;;;;;;2.97;0.70;;;6.60;99.90;;;;;;5010914;28;48827;-74
2021/11/28 12:52:23;;;;;;;1.57;0.87;;;6.60;99.90;;;;;;5050297;28;36531;-73